Miramichi, Canada
Current Conditions -  °F | °C
As of 4:00 AM on Monday 24 Nov 2014 (Local Time) from CZBF Reporting Station
Overcast Overcast  
Wind Chill: 34°   Ceiling: 4000
Heat Index: 34°   Visibility: 15mi
Dew Point: 28°   Wind: 2mph
Humidity: 81%   Direction: 220°SW
Pressure: 30.15"   Gusts: NA
Location:  47.12°N, 65.17°W
Report Text: CZBF 240800Z 22002KT 15SM OVC040 01/M02 A3015 RMK SC8 SLP212
Loading
Personal Weather Stations






























Interactive Weather Map New forecast layout! Learn more

10-Day Weather Forecast

Advertisements
Track Severe Weather on mobile